Time;durP1;ratioP1;P1;durP2;ratioP2;P2;SDS_P1;SDS_P2;PMS_P1;PMS_P2;Temp;Humidity;BMP_temperature;BMP_pressure;BME280_temperature;BME280_humidity;BME280_pressure;Samples;Min_cycle;Max_cycle;Signal;HPM_P1;HPM_P2
2022/11/17 00:01:54;;;;;;;6.65;2.90;;;;;;;;;;4930779;28;20053;-62
2022/11/17 00:04:19;;;;;;;8.05;3.13;;;;;;;;;;4930061;28;20451;-62
2022/11/17 00:06:45;;;;;;;9.63;3.70;;;;;;;;;;4930112;28;20388;-62
2022/11/17 00:09:16;;;;;;;7.53;3.17;;;;;;;;;;4929422;28;20476;-62
2022/11/17 00:14:31;;;;;;;6.95;3.17;;;;;;;;;;4931696;28;20141;-62
2022/11/17 00:16:57;;;;;;;7.10;3.22;;;;;;;;;;4930253;28;20476;-61
2022/11/17 00:22:24;;;;;;;6.30;3.00;;;;;;;;;;4934407;28;20369;-62
2022/11/17 00:24:50;;;;;;;5.55;2.75;;;;;;;;;;4910081;28;20097;-62
2022/11/17 00:27:16;;;;;;;5.22;2.60;;;;;;;;;;4910832;28;20482;-62
2022/11/17 00:29:42;;;;;;;6.00;2.67;;;;;;;;;;4910482;28;20031;-62
2022/11/17 00:34:57;;;;;;;6.30;2.90;;;;;;;;;;4911845;28;20452;-62
2022/11/17 00:37:24;;;;;;;5.53;2.53;;;;;;;;;;4911171;28;20305;-62
2022/11/17 00:39:49;;;;;;;6.30;2.90;;;;;;;;;;4910170;28;20424;-62
2022/11/17 00:42:15;;;;;;;6.97;3.10;;;;;;;;;;4910319;28;20474;-62
2022/11/17 00:44:40;;;;;;;6.57;3.05;;;;;;;;;;4912779;28;20370;-62
2022/11/17 00:47:06;;;;;;;4.60;2.42;;;;;;;;;;4910643;28;20448;-62
2022/11/17 00:49:31;;;;;;;5.95;2.22;;;;;;;;;;4910645;28;20038;-62
2022/11/17 00:51:57;;;;;;;5.18;2.10;;;;;;;;;;4911577;28;20061;-62
2022/11/17 00:54:22;;;;;;;5.22;2.67;;;;;;;;;;4915747;28;20078;-62
2022/11/17 00:56:48;;;;;;;5.05;2.58;;;;;;;;;;4914108;28;20438;-62
2022/11/17 00:59:15;;;;;;;6.05;2.55;;;;;;;;;;4914360;28;20434;-62
2022/11/17 01:01:42;;;;;;;6.70;2.42;;;;;;;;;;4911037;28;20507;-62
2022/11/17 01:04:08;;;;;;;5.03;2.13;;;;;;;;;;4906663;28;20422;-62
2022/11/17 01:06:36;;;;;;;6.47;2.63;;;;;;;;;;4914065;28;20445;-62
2022/11/17 01:09:31;;;;;;;5.07;2.22;;;;;;;;;;4914131;28;20465;-62
2022/11/17 01:11:57;;;;;;;4.68;2.13;;;;;;;;;;4916968;28;20470;-63
2022/11/17 01:14:26;;;;;;;5.50;2.28;;;;;;;;;;4913881;28;20520;-62
2022/11/17 01:16:52;;;;;;;4.15;2.10;;;;;;;;;;4914633;28;20464;-62
2022/11/17 01:19:19;;;;;;;4.45;2.25;;;;;;;;;;4913706;28;20349;-62
2022/11/17 01:21:45;;;;;;;5.72;2.00;;;;;;;;;;4913661;28;20027;-62
2022/11/17 01:24:13;;;;;;;4.50;2.35;;;;;;;;;;4913941;28;20326;-62
2022/11/17 01:26:40;;;;;;;4.43;2.30;;;;;;;;;;4913875;28;20027;-62
2022/11/17 01:29:07;;;;;;;3.95;2.22;;;;;;;;;;4913640;28;20461;-62
2022/11/17 01:31:39;;;;;;;4.65;1.92;;;;;;;;;;4913607;28;20034;-62
2022/11/17 01:34:06;;;;;;;5.18;2.40;;;;;;;;;;4914028;28;20042;-61
2022/11/17 01:39:20;;;;;;;4.30;2.25;;;;;;;;;;4914494;28;20563;-62
2022/11/17 01:41:46;;;;;;;4.03;1.92;;;;;;;;;;4914536;28;20418;-62
2022/11/17 01:44:52;;;;;;;4.80;2.50;;;;;;;;;;4913482;28;20457;-62
2022/11/17 01:48:00;;;;;;;6.80;2.13;;;;;;;;;;4913217;28;20349;-62
2022/11/17 01:50:36;;;;;;;3.78;1.42;;;;;;;;;;4929478;28;20465;-62
2022/11/17 01:53:11;;;;;;;4.78;2.40;;;;;;;;;;4911836;28;20449;-62
2022/11/17 01:55:44;;;;;;;5.20;2.08;;;;;;;;;;4913894;28;20446;-61
2022/11/17 01:58:37;;;;;;;3.58;2.00;;;;;;;;;;4913326;28;20418;-62
2022/11/17 02:01:02;;;;;;;5.13;2.40;;;;;;;;;;4913326;28;20446;-62
2022/11/17 02:03:34;;;;;;;4.63;2.17;;;;;;;;;;4913036;28;20365;-62
2022/11/17 02:06:34;;;;;;;4.25;2.03;;;;;;;;;;4913356;28;20403;-62
2022/11/17 02:09:02;;;;;;;4.32;1.52;;;;;;;;;;4911909;28;20398;-62
2022/11/17 02:11:34;;;;;;;2.80;1.55;;;;;;;;;;4912856;28;20430;-62
2022/11/17 02:14:02;;;;;;;3.00;1.60;;;;;;;;;;4911849;28;20354;-62
2022/11/17 02:16:27;;;;;;;2.80;1.65;;;;;;;;;;4911941;28;20315;-62
2022/11/17 02:18:53;;;;;;;3.70;1.67;;;;;;;;;;4912832;28;20410;-62
2022/11/17 02:21:37;;;;;;;3.08;1.92;;;;;;;;;;4912646;28;20438;-62
2022/11/17 02:24:30;;;;;;;2.80;1.80;;;;;;;;;;4912669;28;20452;-62
2022/11/17 02:27:43;;;;;;;2.85;1.75;;;;;;;;;;4913034;28;20421;-62
2022/11/17 02:30:17;;;;;;;3.45;1.80;;;;;;;;;;4912569;28;20058;-62
2022/11/17 02:32:58;;;;;;;3.38;1.90;;;;;;;;;;4911300;28;20031;-62
2022/11/17 02:35:28;;;;;;;5.28;1.80;;;;;;;;;;4912631;28;20536;-62
2022/11/17 02:38:20;;;;;;;3.28;1.30;;;;;;;;;;4912159;28;20137;-62
2022/11/17 02:41:11;;;;;;;2.65;1.58;;;;;;;;;;4912728;28;20441;-62
2022/11/17 02:44:11;;;;;;;3.33;1.70;;;;;;;;;;4911100;28;20342;-62
2022/11/17 02:46:47;;;;;;;3.08;1.55;;;;;;;;;;4911148;28;20517;-62
2022/11/17 02:49:20;;;;;;;2.97;1.70;;;;;;;;;;4910820;28;20437;-62
2022/11/17 02:51:50;;;;;;;3.13;1.58;;;;;;;;;;4910744;28;20058;-61
2022/11/17 02:54:18;;;;;;;3.10;1.55;;;;;;;;;;4910423;28;20527;-62
2022/11/17 02:56:43;;;;;;;2.05;1.40;;;;;;;;;;4912134;28;20422;-62
2022/11/17 02:59:13;;;;;;;4.22;1.70;;;;;;;;;;4913552;28;20456;-62
2022/11/17 03:02:02;;;;;;;2.65;1.60;;;;;;;;;;4910166;28;20370;-62
2022/11/17 03:04:42;;;;;;;3.72;1.40;;;;;;;;;;4910674;28;20412;-62
2022/11/17 03:07:31;;;;;;;3.20;1.30;;;;;;;;;;4911810;28;20034;-62
2022/11/17 03:10:38;;;;;;;4.80;1.60;;;;;;;;;;4911682;28;20102;-62
2022/11/17 03:13:20;;;;;;;2.50;1.52;;;;;;;;;;4911982;28;20430;-62
2022/11/17 03:16:03;;;;;;;3.67;1.70;;;;;;;;;;4910408;28;20422;-62
2022/11/17 03:18:44;;;;;;;3.00;1.70;;;;;;;;;;4909997;28;20342;-62
2022/11/17 03:21:39;;;;;;;2.83;1.50;;;;;;;;;;4910648;28;20395;-62
2022/11/17 03:24:14;;;;;;;1.98;1.10;;;;;;;;;;4910753;28;20453;-62
2022/11/17 03:26:47;;;;;;;3.63;1.45;;;;;;;;;;4911612;28;20357;-62
2022/11/17 03:29:16;;;;;;;3.60;1.88;;;;;;;;;;4911625;28;20333;-62
2022/11/17 03:31:46;;;;;;;4.22;1.90;;;;;;;;;;4910248;28;20097;-62
2022/11/17 03:34:17;;;;;;;3.35;1.20;;;;;;;;;;4910453;28;20551;-62
2022/11/17 03:36:48;;;;;;;4.60;2.00;;;;;;;;;;4911339;28;20581;-62
2022/11/17 03:39:26;;;;;;;3.30;1.83;;;;;;;;;;4910918;28;20345;-62
2022/11/17 03:42:04;;;;;;;2.97;1.35;;;;;;;;;;4910098;28;20458;-62
2022/11/17 03:44:32;;;;;;;3.88;1.90;;;;;;;;;;4911241;28;20437;-62
2022/11/17 03:47:01;;;;;;;4.80;1.23;;;;;;;;;;4911278;28;20354;-62
2022/11/17 03:49:43;;;;;;;4.65;1.80;;;;;;;;;;4911422;28;20399;-62
2022/11/17 03:52:09;;;;;;;2.88;1.20;;;;;;;;;;4912409;28;20338;-62
2022/11/17 03:54:35;;;;;;;2.42;1.15;;;;;;;;;;4911379;28;20349;-62
2022/11/17 03:57:35;;;;;;;3.05;1.38;;;;;;;;;;4909538;28;20457;-62
2022/11/17 04:00:08;;;;;;;1.98;0.98;;;;;;;;;;4910398;28;20038;-62
2022/11/17 04:02:33;;;;;;;1.70;1.08;;;;;;;;;;4910272;28;20492;-62
2022/11/17 04:05:05;;;;;;;2.10;1.25;;;;;;;;;;4908972;28;20412;-62
2022/11/17 04:07:39;;;;;;;4.10;1.50;;;;;;;;;;4911001;28;20030;-62
2022/11/17 04:10:09;;;;;;;3.13;1.50;;;;;;;;;;4910630;28;20500;-62
2022/11/17 04:18:03;;;;;;;1.88;1.30;;;;;;;;;;4912864;28;20061;-62
2022/11/17 04:20:34;;;;;;;3.40;1.15;;;;;;;;;;4910439;28;20464;-62
2022/11/17 04:23:10;;;;;;;2.55;1.38;;;;;;;;;;4910818;28;20524;-63
2022/11/17 04:28:36;;;;;;;2.30;1.50;;;;;;;;;;4917276;28;20429;-62
2022/11/17 04:31:25;;;;;;;2.92;1.52;;;;;;;;;;4914612;28;20426;-62
2022/11/17 04:33:57;;;;;;;3.33;1.40;;;;;;;;;;4929225;28;20452;-62
2022/11/17 04:36:33;;;;;;;2.28;1.35;;;;;;;;;;4915536;28;20449;-62
2022/11/17 04:38:59;;;;;;;1.85;0.82;;;;;;;;;;4915283;28;20464;-63
2022/11/17 04:44:14;;;;;;;3.20;1.40;;;;;;;;;;4915372;28;20058;-62
2022/11/17 04:46:40;;;;;;;1.75;0.95;;;;;;;;;;4914573;28;20049;-62
2022/11/17 04:49:07;;;;;;;1.52;1.00;;;;;;;;;;4914208;28;20054;-62
2022/11/17 04:51:33;;;;;;;2.60;1.90;;;;;;;;;;4914112;28;20019;-62
2022/11/17 04:54:00;;;;;;;2.28;1.40;;;;;;;;;;4914477;28;20414;-62
2022/11/17 04:56:26;;;;;;;2.67;1.40;;;;;;;;;;4914075;28;20066;-62
2022/11/17 04:58:53;;;;;;;2.83;1.23;;;;;;;;;;4914658;28;20122;-62
2022/11/17 05:01:21;;;;;;;3.10;1.55;;;;;;;;;;4914791;28;20434;-62
2022/11/17 05:03:54;;;;;;;3.40;1.40;;;;;;;;;;4914645;28;20350;-62
2022/11/17 05:06:26;;;;;;;2.55;1.45;;;;;;;;;;4912726;28;20354;-62
2022/11/17 05:08:57;;;;;;;2.33;1.20;;;;;;;;;;4914044;28;20413;-62
2022/11/17 05:14:11;;;;;;;1.48;1.10;;;;;;;;;;4916044;28;20429;-62
2022/11/17 05:19:26;;;;;;;2.50;1.42;;;;;;;;;;4914825;28;20426;-61
2022/11/17 05:21:52;;;;;;;1.88;1.08;;;;;;;;;;4915511;28;20490;-62
2022/11/17 05:24:17;;;;;;;2.47;0.90;;;;;;;;;;4914070;28;20458;-62
2022/11/17 05:26:45;;;;;;;2.70;1.20;;;;;;;;;;4913872;28;20418;-62
2022/11/17 05:29:16;;;;;;;2.03;1.35;;;;;;;;;;4914808;28;20049;-62
2022/11/17 05:31:42;;;;;;;2.78;1.10;;;;;;;;;;4914236;28;20311;-62
2022/11/17 05:34:11;;;;;;;1.80;1.05;;;;;;;;;;4913903;28;20035;-62
2022/11/17 05:36:38;;;;;;;1.50;0.95;;;;;;;;;;4913549;28;20109;-62
2022/11/17 05:39:05;;;;;;;1.30;0.85;;;;;;;;;;4912982;28;20358;-62
2022/11/17 05:41:31;;;;;;;3.40;1.30;;;;;;;;;;4913857;28;20039;-62
2022/11/17 05:43:57;;;;;;;3.28;1.50;;;;;;;;;;4913466;28;20350;-62
2022/11/17 05:46:24;;;;;;;2.35;1.33;;;;;;;;;;4913864;28;20035;-62
2022/11/17 05:48:51;;;;;;;2.42;1.40;;;;;;;;;;4912867;28;20350;-62
2022/11/17 05:51:19;;;;;;;2.80;1.25;;;;;;;;;;4801496;28;20058;-62
2022/11/17 05:53:45;;;;;;;1.98;1.17;;;;;;;;;;4858341;28;20536;-62
2022/11/17 05:56:31;;;;;;;2.17;1.15;;;;;;;;;;4915033;28;20382;-62
2022/11/17 05:59:16;;;;;;;2.38;1.40;;;;;;;;;;4913416;28;20405;-62
2022/11/17 06:02:12;;;;;;;1.20;0.82;;;;;;;;;;4913072;28;20438;-62
2022/11/17 06:04:38;;;;;;;1.98;1.20;;;;;;;;;;4913636;28;20330;-62
2022/11/17 06:07:04;;;;;;;1.17;0.85;;;;;;;;;;4914002;28;20337;-62
2022/11/17 06:09:40;;;;;;;1.63;0.95;;;;;;;;;;4912571;28;20184;-62
2022/11/17 06:12:06;;;;;;;1.70;1.00;;;;;;;;;;4912993;28;20521;-62
2022/11/17 06:14:32;;;;;;;5.82;1.60;;;;;;;;;;4913497;28;20418;-62
2022/11/17 06:17:04;;;;;;;1.83;1.10;;;;;;;;;;4912358;28;20357;-62
2022/11/17 06:19:37;;;;;;;1.75;1.05;;;;;;;;;;4912721;28;20445;-62
2022/11/17 06:22:03;;;;;;;1.35;0.93;;;;;;;;;;4912597;28;20426;-62
2022/11/17 06:24:32;;;;;;;3.05;1.25;;;;;;;;;;4912774;28;20406;-62
2022/11/17 06:26:57;;;;;;;1.93;1.10;;;;;;;;;;4912634;28;20465;-62
2022/11/17 06:29:23;;;;;;;2.67;1.10;;;;;;;;;;4912565;28;20476;-62
2022/11/17 06:31:49;;;;;;;1.30;0.98;;;;;;;;;;4911285;28;20031;-62
2022/11/17 06:34:14;;;;;;;2.67;1.02;;;;;;;;;;4913522;28;20463;-62
2022/11/17 06:36:40;;;;;;;2.38;1.20;;;;;;;;;;4913245;28;20489;-61
2022/11/17 06:39:05;;;;;;;3.15;1.23;;;;;;;;;;4913972;28;20362;-62
2022/11/17 06:41:31;;;;;;;1.98;0.98;;;;;;;;;;4912316;28;20034;-62
2022/11/17 06:43:56;;;;;;;2.08;1.00;;;;;;;;;;4910898;28;20030;-62
2022/11/17 06:46:22;;;;;;;2.53;0.90;;;;;;;;;;4912949;28;20381;-62
2022/11/17 06:48:47;;;;;;;1.90;0.90;;;;;;;;;;4912169;28;20093;-62
2022/11/17 06:51:13;;;;;;;1.73;0.90;;;;;;;;;;4912094;28;20496;-62
2022/11/17 06:53:38;;;;;;;3.92;0.90;;;;;;;;;;4912268;28;20516;-62
2022/11/17 06:56:07;;;;;;;2.17;0.98;;;;;;;;;;4913198;28;20027;-62
2022/11/17 06:58:34;;;;;;;3.10;0.90;;;;;;;;;;4911895;28;20493;-62
2022/11/17 07:01:12;;;;;;;1.52;0.70;;;;;;;;;;4912196;28;20522;-63
2022/11/17 07:03:39;;;;;;;2.75;1.00;;;;;;;;;;4911835;28;20420;-62
2022/11/17 07:06:07;;;;;;;1.92;0.75;;;;;;;;;;4911914;28;20038;-62
2022/11/17 07:08:34;;;;;;;2.00;0.90;;;;;;;;;;4911996;28;20458;-62
2022/11/17 07:11:10;;;;;;;2.08;0.80;;;;;;;;;;4911993;28;20384;-62
2022/11/17 07:13:37;;;;;;;2.38;0.80;;;;;;;;;;4912171;28;20438;-62
2022/11/17 07:16:15;;;;;;;2.60;1.30;;;;;;;;;;4912409;28;20433;-62
2022/11/17 07:18:41;;;;;;;1.27;0.90;;;;;;;;;;4913306;28;20356;-62
2022/11/17 07:21:12;;;;;;;2.25;0.85;;;;;;;;;;4911691;28;20030;-63
2022/11/17 07:23:39;;;;;;;1.67;1.08;;;;;;;;;;4912031;28;20434;-62
2022/11/17 07:26:06;;;;;;;2.63;1.02;;;;;;;;;;4911239;28;20472;-62
2022/11/17 07:28:33;;;;;;;1.58;0.93;;;;;;;;;;4910579;28;20476;-62
2022/11/17 07:31:04;;;;;;;2.33;0.95;;;;;;;;;;4911339;28;20307;-62
2022/11/17 07:33:30;;;;;;;3.47;0.77;;;;;;;;;;4911803;28;20300;-62
2022/11/17 07:36:08;;;;;;;2.35;1.00;;;;;;;;;;4911719;28;20473;-62
2022/11/17 07:38:35;;;;;;;1.42;0.75;;;;;;;;;;4912444;28;20329;-62
2022/11/17 07:41:01;;;;;;;1.63;0.77;;;;;;;;;;4849438;28;20465;-62
2022/11/17 07:43:27;;;;;;;1.63;0.73;;;;;;;;;;4911407;28;20157;-62
2022/11/17 07:45:53;;;;;;;2.65;0.95;;;;;;;;;;4911181;28;20096;-62
2022/11/17 07:48:18;;;;;;;2.67;0.90;;;;;;;;;;4910904;28;20113;-62
2022/11/17 07:50:44;;;;;;;2.90;1.05;;;;;;;;;;4911461;28;20393;-62
2022/11/17 07:53:09;;;;;;;2.00;1.20;;;;;;;;;;4910842;28;20449;-62
2022/11/17 07:55:35;;;;;;;2.00;0.85;;;;;;;;;;4863004;28;20465;-62
2022/11/17 07:58:00;;;;;;;2.35;0.52;;;;;;;;;;4912451;28;20053;-62
2022/11/17 08:00:30;;;;;;;1.55;0.85;;;;;;;;;;4910400;28;20484;-62
2022/11/17 08:03:00;;;;;;;2.75;0.80;;;;;;;;;;4911253;28;20374;-62
2022/11/17 08:05:29;;;;;;;1.38;0.60;;;;;;;;;;4911807;28;20437;-62
2022/11/17 08:07:56;;;;;;;2.30;0.93;;;;;;;;;;4906316;28;20405;-62
2022/11/17 08:10:22;;;;;;;1.67;0.80;;;;;;;;;;4891707;28;20492;-62
2022/11/17 08:12:53;;;;;;;1.80;1.33;;;;;;;;;;4893577;28;20130;-62
2022/11/17 08:15:18;;;;;;;2.67;1.25;;;;;;;;;;4892388;28;20544;-62
2022/11/17 08:17:44;;;;;;;2.35;1.02;;;;;;;;;;4891814;29;20472;-62
2022/11/17 08:20:11;;;;;;;2.55;1.27;;;;;;;;;;4892851;29;20489;-62
2022/11/17 08:22:37;;;;;;;2.55;1.20;;;;;;;;;;4892169;28;20392;-62
2022/11/17 08:25:03;;;;;;;1.88;1.00;;;;;;;;;;4891760;28;20370;-62
2022/11/17 08:27:28;;;;;;;2.38;1.38;;;;;;;;;;4892095;28;20350;-63
2022/11/17 08:29:54;;;;;;;3.17;0.80;;;;;;;;;;4892869;29;20415;-62
2022/11/17 08:32:19;;;;;;;2.60;1.08;;;;;;;;;;4891953;28;20453;-62
2022/11/17 08:34:45;;;;;;;3.53;1.27;;;;;;;;;;4891630;28;20055;-62
2022/11/17 08:37:10;;;;;;;1.85;1.10;;;;;;;;;;4891985;29;20054;-62
2022/11/17 08:39:36;;;;;;;2.10;1.10;;;;;;;;;;4891889;28;20377;-62
2022/11/17 08:42:01;;;;;;;2.65;1.35;;;;;;;;;;4892151;29;20434;-63
2022/11/17 08:44:26;;;;;;;2.55;0.98;;;;;;;;;;4892005;29;20421;-62
2022/11/17 08:46:52;;;;;;;2.83;1.25;;;;;;;;;;4891040;29;20338;-62
2022/11/17 08:49:17;;;;;;;2.42;1.02;;;;;;;;;;4891220;28;20473;-62
2022/11/17 08:51:43;;;;;;;2.35;1.00;;;;;;;;;;4892397;29;20481;-62
2022/11/17 08:54:11;;;;;;;3.58;0.95;;;;;;;;;;4891854;28;20346;-62
2022/11/17 08:56:37;;;;;;;2.47;0.98;;;;;;;;;;4891966;29;20346;-62
2022/11/17 08:59:02;;;;;;;1.98;0.90;;;;;;;;;;4891562;28;20031;-62
2022/11/17 09:01:27;;;;;;;0.82;0.70;;;;;;;;;;4892201;28;20512;-62
2022/11/17 09:03:53;;;;;;;1.85;1.00;;;;;;;;;;4891899;29;20040;-62
2022/11/17 09:06:19;;;;;;;3.88;2.00;;;;;;;;;;4891451;28;20426;-62
2022/11/17 09:08:45;;;;;;;3.28;1.73;;;;;;;;;;4891388;28;20345;-62
2022/11/17 09:11:11;;;;;;;2.47;1.45;;;;;;;;;;4891422;29;20417;-62
2022/11/17 09:13:38;;;;;;;3.92;1.92;;;;;;;;;;4893693;28;20106;-62
2022/11/17 09:16:10;;;;;;;4.57;2.00;;;;;;;;;;4894721;28;20441;-62
2022/11/17 09:18:37;;;;;;;3.03;1.60;;;;;;;;;;4893677;29;20429;-61
2022/11/17 09:21:06;;;;;;;5.55;2.25;;;;;;;;;;4894979;28;20430;-62
2022/11/17 09:23:32;;;;;;;7.10;2.10;;;;;;;;;;4894903;28;20027;-62
2022/11/17 09:25:58;;;;;;;4.18;1.88;;;;;;;;;;4894830;28;20454;-62
2022/11/17 09:28:25;;;;;;;3.75;1.77;;;;;;;;;;4894885;29;20125;-62
2022/11/17 09:30:51;;;;;;;3.50;1.30;;;;;;;;;;4894795;29;20345;-62
2022/11/17 09:33:17;;;;;;;4.40;1.25;;;;;;;;;;4894721;29;20170;-62
2022/11/17 09:35:42;;;;;;;2.25;1.58;;;;;;;;;;4896806;28;20434;-61
2022/11/17 09:38:08;;;;;;;3.40;1.50;;;;;;;;;;4894687;29;20422;-62
2022/11/17 09:40:34;;;;;;;3.55;1.90;;;;;;;;;;4894828;29;20414;-62
2022/11/17 09:42:59;;;;;;;3.00;1.60;;;;;;;;;;4894856;28;20456;-62
2022/11/17 09:45:32;;;;;;;3.80;1.83;;;;;;;;;;4893763;29;20430;-61
2022/11/17 09:48:08;;;;;;;4.38;1.60;;;;;;;;;;4895454;29;20434;-62
2022/11/17 09:50:38;;;;;;;2.92;1.80;;;;;;;;;;4892709;29;20098;-61
2022/11/17 09:53:28;;;;;;;3.55;1.90;;;;;;;;;;4893533;29;20378;-61
2022/11/17 09:56:05;;;;;;;5.18;2.03;;;;;;;;;;4894200;29;20426;-61
2022/11/17 09:58:52;;;;;;;4.75;2.15;;;;;;;;;;4895070;28;20027;-62
2022/11/17 10:01:20;;;;;;;4.70;2.17;;;;;;;;;;4894195;29;20532;-61
2022/11/17 10:03:50;;;;;;;5.75;2.25;;;;;;;;;;4894596;28;20102;-61
2022/11/17 10:06:21;;;;;;;4.28;2.53;;;;;;;;;;4892676;29;20118;-61
2022/11/17 10:09:13;;;;;;;3.70;1.77;;;;;;;;;;4893734;28;20372;-61
2022/11/17 10:11:42;;;;;;;3.47;1.92;;;;;;;;;;4892482;28;20477;-61
2022/11/17 10:14:07;;;;;;;;;;;;;;;;;;4894670;28;20453;-61
2022/11/17 10:16:35;;;;;;;5.55;2.30;;;;;;;;;;4893901;28;20317;-61
2022/11/17 10:19:14;;;;;;;4.22;2.42;;;;;;;;;;4894455;29;20039;-61
2022/11/17 10:21:39;;;;;;;;;;;;;;;;;;4894366;28;20062;-62
2022/11/17 10:24:06;;;;;;;6.43;2.45;;;;;;;;;;4893315;28;19914;-61
2022/11/17 10:26:46;;;;;;;5.97;2.88;;;;;;;;;;4870655;28;20454;-62
2022/11/17 10:29:15;;;;;;;6.60;3.25;;;;;;;;;;4906080;28;20039;-61
2022/11/17 10:31:44;;;;;;;8.35;2.53;;;;;;;;;;4893316;28;20409;-61
2022/11/17 10:34:17;;;;;;;7.57;3.45;;;;;;;;;;4894833;28;20163;-61
2022/11/17 10:36:46;;;;;;;6.40;2.55;;;;;;;;;;4893342;28;20342;-61
2022/11/17 10:40:01;;;;;;;;;;;;;;;;;;4892497;28;20351;-61
2022/11/17 10:42:26;;;;;;;4.63;2.40;;;;;;;;;;4910047;28;20428;-61
2022/11/17 10:44:58;;;;;;;8.38;3.15;;;;;;;;;;4909863;28;20335;-61
2022/11/17 10:47:37;;;;;;;8.00;3.58;;;;;;;;;;4900962;28;20067;-61
2022/11/17 10:50:21;;;;;;;7.95;3.20;;;;;;;;;;4893898;29;20493;-61
2022/11/17 10:52:49;;;;;;;7.07;3.17;;;;;;;;;;4894608;28;20035;-61
2022/11/17 10:55:32;;;;;;;7.70;3.75;;;;;;;;;;4892845;28;20417;-61
2022/11/17 10:58:21;;;;;;;7.30;3.03;;;;;;;;;;4892601;29;20332;-61
2022/11/17 11:00:55;;;;;;;7.93;3.70;;;;;;;;;;4891497;29;20442;-61
2022/11/17 11:03:29;;;;;;;6.53;3.35;;;;;;;;;;4894084;28;20626;-61
2022/11/17 11:05:57;;;;;;;5.70;3.03;;;;;;;;;;4892952;28;20094;-61
2022/11/17 11:08:42;;;;;;;8.70;3.63;;;;;;;;;;4892868;29;20530;-61
2022/11/17 11:11:28;;;;;;;7.93;3.10;;;;;;;;;;4891948;28;20436;-61
2022/11/17 11:14:01;;;;;;;8.60;3.38;;;;;;;;;;4891396;28;20453;-61
2022/11/17 11:16:29;;;;;;;7.43;2.97;;;;;;;;;;4893078;28;20394;-61
2022/11/17 11:18:55;;;;;;;7.55;3.50;;;;;;;;;;4891741;29;20530;-61
2022/11/17 11:22:05;;;;;;;5.32;2.80;;;;;;;;;;4892935;28;20458;-61
2022/11/17 11:25:09;;;;;;;6.10;3.13;;;;;;;;;;4892572;28;20466;-61
2022/11/17 11:28:04;;;;;;;4.90;2.42;;;;;;;;;;4891271;28;20398;-62
2022/11/17 11:30:51;;;;;;;6.13;2.60;;;;;;;;;;4892286;29;20102;-61
2022/11/17 11:33:35;;;;;;;7.93;3.50;;;;;;;;;;4891913;29;20402;-61
2022/11/17 11:36:23;;;;;;;4.85;2.45;;;;;;;;;;4890878;28;20508;-61
2022/11/17 11:38:59;;;;;;;5.68;3.17;;;;;;;;;;4891493;29;20150;-61
2022/11/17 11:41:54;;;;;;;6.78;2.88;;;;;;;;;;4892181;28;20489;-61
2022/11/17 11:44:39;;;;;;;6.15;2.88;;;;;;;;;;4890693;28;20384;-61
2022/11/17 11:47:41;;;;;;;8.13;3.15;;;;;;;;;;4892227;29;20485;-61
2022/11/17 11:50:18;;;;;;;6.43;2.65;;;;;;;;;;4892264;28;20336;-61
2022/11/17 11:52:50;;;;;;;5.35;2.88;;;;;;;;;;4891869;28;20035;-61
2022/11/17 11:55:35;;;;;;;6.88;3.20;;;;;;;;;;4892560;29;20453;-61
2022/11/17 11:58:19;;;;;;;7.25;3.05;;;;;;;;;;4892018;29;20403;-61
2022/11/17 12:00:48;;;;;;;8.20;2.88;;;;;;;;;;4890711;28;20505;-61
2022/11/17 12:03:42;;;;;;;5.63;3.00;;;;;;;;;;4890788;29;20442;-61
2022/11/17 12:06:41;;;;;;;6.10;2.83;;;;;;;;;;4892094;28;20371;-61
2022/11/17 12:09:16;;;;;;;5.63;2.75;;;;;;;;;;4897514;28;20490;-61
2022/11/17 12:12:01;;;;;;;8.80;3.75;;;;;;;;;;4890526;29;20031;-61
2022/11/17 12:14:30;;;;;;;5.93;3.53;;;;;;;;;;4891796;28;20361;-61
2022/11/17 12:17:25;;;;;;;5.40;2.85;;;;;;;;;;4891514;28;20322;-61
2022/11/17 12:20:24;;;;;;;7.43;3.22;;;;;;;;;;4892561;28;20303;-61
2022/11/17 12:23:30;;;;;;;6.35;3.13;;;;;;;;;;4891441;28;20106;-61
2022/11/17 12:25:58;;;;;;;6.22;3.33;;;;;;;;;;4891855;29;20513;-61
2022/11/17 12:28:37;;;;;;;6.90;3.45;;;;;;;;;;4891375;29;20031;-61
2022/11/17 12:31:24;;;;;;;9.18;4.03;;;;;;;;;;4890299;28;20477;-61
2022/11/17 12:33:52;;;;;;;6.07;3.00;;;;;;;;;;4891091;28;20032;-61
2022/11/17 12:36:32;;;;;;;7.03;3.33;;;;;;;;;;4891647;28;20359;-61
2022/11/17 12:39:30;;;;;;;6.95;3.35;;;;;;;;;;4893017;29;20402;-61
2022/11/17 12:42:06;;;;;;;6.53;3.15;;;;;;;;;;4890068;29;20522;-61
2022/11/17 12:44:38;;;;;;;7.10;3.50;;;;;;;;;;4890263;29;20441;-61
2022/11/17 12:47:13;;;;;;;7.28;3.40;;;;;;;;;;4892731;28;20399;-61
2022/11/17 12:50:02;;;;;;;8.13;3.78;;;;;;;;;;4893685;29;20387;-61
2022/11/17 12:53:02;;;;;;;7.78;3.75;;;;;;;;;;4895295;28;20350;-61
2022/11/17 12:55:27;;;;;;;5.68;2.67;;;;;;;;;;4893852;29;20142;-61
2022/11/17 12:58:23;;;;;;;7.30;3.70;;;;;;;;;;4895305;28;20497;-61
2022/11/17 13:01:27;;;;;;;5.75;2.97;;;;;;;;;;4895068;28;20031;-61
2022/11/17 13:04:15;;;;;;;6.68;3.55;;;;;;;;;;4894519;28;20362;-61
2022/11/17 13:07:15;;;;;;;8.00;3.67;;;;;;;;;;4893712;29;20484;-61
2022/11/17 13:09:41;;;;;;;6.13;3.33;;;;;;;;;;4894355;28;20419;-61
2022/11/17 13:12:09;;;;;;;6.63;3.20;;;;;;;;;;4894906;29;20378;-61
2022/11/17 13:14:51;;;;;;;6.85;2.95;;;;;;;;;;4894627;28;20447;-61
2022/11/17 13:17:19;;;;;;;5.93;3.10;;;;;;;;;;4894650;29;20489;-61
2022/11/17 13:19:45;;;;;;;7.65;3.78;;;;;;;;;;4894722;28;20486;-61
2022/11/17 13:22:17;;;;;;;6.35;3.60;;;;;;;;;;4893550;29;20350;-60
2022/11/17 13:24:48;;;;;;;7.80;2.90;;;;;;;;;;4896458;28;20097;-61
2022/11/17 13:27:30;;;;;;;4.25;2.90;;;;;;;;;;4894524;28;20031;-61
2022/11/17 13:30:21;;;;;;;6.80;3.17;;;;;;;;;;4894663;29;20027;-61
2022/11/17 13:32:47;;;;;;;7.35;3.72;;;;;;;;;;4895967;28;20415;-61
2022/11/17 13:35:28;;;;;;;7.70;3.58;;;;;;;;;;4894982;28;20327;-61
2022/11/17 13:38:11;;;;;;;7.65;3.35;;;;;;;;;;4894635;29;20439;-61
2022/11/17 13:40:38;;;;;;;6.10;3.17;;;;;;;;;;4894466;28;20369;-61
2022/11/17 13:43:07;;;;;;;6.63;3.13;;;;;;;;;;4893311;29;20474;-61
2022/11/17 13:45:32;;;;;;;7.70;3.50;;;;;;;;;;4894512;28;20487;-61
2022/11/17 13:47:58;;;;;;;8.00;3.47;;;;;;;;;;4894739;28;20503;-61
2022/11/17 13:50:28;;;;;;;6.93;3.47;;;;;;;;;;4894059;29;20430;-61
2022/11/17 13:53:05;;;;;;;8.50;3.50;;;;;;;;;;4894117;28;20423;-61
2022/11/17 13:55:32;;;;;;;7.05;3.42;;;;;;;;;;4892750;29;20050;-61
2022/11/17 13:58:00;;;;;;;7.60;3.95;;;;;;;;;;4892067;28;20300;-63
2022/11/17 14:00:27;;;;;;;10.85;3.58;;;;;;;;;;4894011;28;20461;-63
2022/11/17 14:02:58;;;;;;;9.88;4.00;;;;;;;;;;4892501;29;20366;-61
2022/11/17 14:05:26;;;;;;;8.85;3.80;;;;;;;;;;4894216;28;20050;-61
2022/11/17 14:07:55;;;;;;;9.88;4.40;;;;;;;;;;4893874;28;20449;-60
2022/11/17 14:10:24;;;;;;;9.48;4.03;;;;;;;;;;4894064;29;20389;-61
2022/11/17 14:12:52;;;;;;;12.90;4.90;;;;;;;;;;4895143;28;20443;-61
2022/11/17 14:15:28;;;;;;;13.05;4.80;;;;;;;;;;4893614;28;20760;-61
2022/11/17 14:17:59;;;;;;;11.70;4.53;;;;;;;;;;4892797;29;20465;-61
2022/11/17 14:20:25;;;;;;;9.85;4.53;;;;;;;;;;4892439;28;20390;-61
2022/11/17 14:23:09;;;;;;;10.63;4.32;;;;;;;;;;4893761;28;20036;-61
2022/11/17 14:25:44;;;;;;;14.20;5.45;;;;;;;;;;4895108;28;20474;-61
2022/11/17 14:28:14;;;;;;;15.77;6.22;;;;;;;;;;4892113;29;20327;-61
2022/11/17 14:30:39;;;;;;;13.15;5.35;;;;;;;;;;4893346;28;20031;-61
2022/11/17 14:33:05;;;;;;;16.73;5.78;;;;;;;;;;4893584;29;20027;-61
2022/11/17 14:35:31;;;;;;;11.65;5.72;;;;;;;;;;4893543;29;20517;-61
2022/11/17 14:37:59;;;;;;;12.13;5.47;;;;;;;;;;4892109;29;20450;-61
2022/11/17 14:40:24;;;;;;;11.52;5.90;;;;;;;;;;4893665;28;20462;-61
2022/11/17 14:42:49;;;;;;;11.02;4.80;;;;;;;;;;4892991;29;20535;-61
2022/11/17 14:45:18;;;;;;;13.10;5.32;;;;;;;;;;4893503;29;20019;-61
2022/11/17 14:47:43;;;;;;;21.40;6.47;;;;;;;;;;4893490;28;20028;-62
2022/11/17 14:50:15;;;;;;;23.35;7.15;;;;;;;;;;4893976;28;20441;-61
2022/11/17 14:52:42;;;;;;;13.93;5.10;;;;;;;;;;4892956;28;20438;-61
2022/11/17 14:55:13;;;;;;;26.48;6.57;;;;;;;;;;4893239;29;20457;-61
2022/11/17 14:57:39;;;;;;;18.42;6.85;;;;;;;;;;4893174;28;20089;-61
2022/11/17 15:00:08;;;;;;;26.80;7.63;;;;;;;;;;4892998;28;20059;-61
2022/11/17 15:02:35;;;;;;;20.98;6.95;;;;;;;;;;4893441;29;20086;-61
2022/11/17 15:05:01;;;;;;;22.92;7.15;;;;;;;;;;4893585;29;20406;-61
2022/11/17 15:07:27;;;;;;;20.33;7.05;;;;;;;;;;4893224;28;20469;-61
2022/11/17 15:09:54;;;;;;;24.15;7.93;;;;;;;;;;4891824;28;20454;-61
2022/11/17 15:12:20;;;;;;;26.15;8.73;;;;;;;;;;4892881;29;20307;-61
2022/11/17 15:14:46;;;;;;;19.88;7.15;;;;;;;;;;4893603;28;20521;-61
2022/11/17 15:17:13;;;;;;;25.27;8.13;;;;;;;;;;4907239;28;20330;-61
2022/11/17 15:19:39;;;;;;;25.70;6.78;;;;;;;;;;4892643;28;20438;-61
2022/11/17 15:22:04;;;;;;;21.52;6.65;;;;;;;;;;4894176;28;20488;-61
2022/11/17 15:24:29;;;;;;;29.42;8.40;;;;;;;;;;4892118;28;20447;-61
2022/11/17 15:26:55;;;;;;;24.45;7.20;;;;;;;;;;4892152;29;20027;-61
2022/11/17 15:29:20;;;;;;;18.85;7.03;;;;;;;;;;4892201;29;20442;-61
2022/11/17 15:31:46;;;;;;;29.95;8.30;;;;;;;;;;4891758;28;20445;-61
2022/11/17 15:34:13;;;;;;;21.70;7.20;;;;;;;;;;4892147;29;20429;-61
2022/11/17 15:36:38;;;;;;;23.77;7.18;;;;;;;;;;4891789;28;20438;-61
2022/11/17 15:39:04;;;;;;;24.15;7.95;;;;;;;;;;4891990;28;20370;-61
2022/11/17 15:41:30;;;;;;;21.70;7.07;;;;;;;;;;4891822;28;20039;-61
2022/11/17 15:43:55;;;;;;;22.73;6.72;;;;;;;;;;4891907;29;20537;-61